Time;durP1;ratioP1;P1;durP2;ratioP2;P2;SDS_P1;SDS_P2;PMS_P1;PMS_P2;Temp;Humidity;BMP_temperature;BMP_pressure;BME280_temperature;BME280_humidity;BME280_pressure;Samples;Min_cycle;Max_cycle;Signal;HPM_P1;HPM_P2
2023/06/12 00:02:13;;;;;;;13.70;5.03;;;;;;;16.07;71.74;100166.41;123851;1102;104507;-79
2023/06/12 00:04:45;;;;;;;13.00;5.80;;;;;;;16.08;72.04;100162.91;123740;1102;104329;-80
2023/06/12 00:07:17;;;;;;;11.97;5.30;;;;;;;16.02;72.20;100141.69;123642;1100;104261;-79
2023/06/12 00:09:49;;;;;;;14.20;5.40;;;;;;;16.08;72.33;100152.31;123787;1102;104325;-80
2023/06/12 00:12:20;;;;;;;12.03;4.93;;;;;;;16.08;72.58;100159.34;123882;1102;104370;-79
2023/06/12 00:14:51;;;;;;;10.77;5.27;;;;;;;16.06;72.75;100161.11;123808;1102;104348;-80
2023/06/12 00:17:23;;;;;;;12.63;6.17;;;;;;;16.05;72.70;100160.23;123822;1102;104274;-79
2023/06/12 00:19:54;;;;;;;10.70;4.93;;;;;;;16.05;72.08;100148.73;123795;1102;104226;-79
2023/06/12 00:22:25;;;;;;;10.97;5.00;;;;;;;16.05;72.87;100165.53;123881;1101;104239;-79
2023/06/12 00:24:56;;;;;;;14.57;5.60;;;;;;;16.05;72.18;100159.32;123895;1102;104402;-81
2023/06/12 00:27:27;;;;;;;12.07;5.40;;;;;;;16.01;71.99;100155.78;123750;1102;104357;-80
2023/06/12 00:29:59;;;;;;;10.67;5.30;;;;;;;15.98;72.19;100163.69;123891;1102;104327;-81
2023/06/12 00:32:30;;;;;;;15.57;6.70;;;;;;;15.96;73.04;100160.16;123789;1102;104304;-81
2023/06/12 00:35:01;;;;;;;9.83;5.70;;;;;;;15.92;72.14;100156.58;123877;1102;104255;-79
2023/06/12 00:37:33;;;;;;;14.03;5.20;;;;;;;15.91;72.52;100168.05;123783;1102;104262;-79
2023/06/12 00:40:06;;;;;;;12.30;5.17;;;;;;;15.89;72.14;100171.55;123871;1102;104766;-79
2023/06/12 00:42:41;;;;;;;10.80;5.25;;;;;;;15.90;72.16;100171.56;123835;1101;104222;-78
2023/06/12 00:45:14;;;;;;;13.17;5.23;;;;;;;15.90;73.29;100174.20;123796;1102;104258;-80
2023/06/12 00:47:54;;;;;;;7.40;5.00;;;;;;;15.91;72.28;100172.44;123952;1102;104248;-81
2023/06/12 00:50:28;;;;;;;10.50;5.13;;;;;;;15.94;73.08;100173.38;123748;1102;104354;-80
2023/06/12 00:53:00;;;;;;;11.37;5.30;;;;;;;15.92;72.64;100169.80;123819;1102;104369;-79
2023/06/12 00:55:33;;;;;;;7.83;4.90;;;;;;;15.94;72.61;100169.81;123767;1102;104683;-86
2023/06/12 00:58:05;;;;;;;13.13;5.00;;;;;;;15.95;73.39;100163.66;123751;1102;104284;-81
2023/06/12 01:00:38;;;;;;;12.50;5.37;;;;;;;15.91;73.25;100170.70;123673;1101;104217;-79
2023/06/12 01:03:13;;;;;;;11.70;5.67;;;;;;;15.90;73.25;100176.86;123725;1101;104352;-78
2023/06/12 01:05:47;;;;;;;13.53;5.30;;;;;;;15.88;72.47;100172.41;123701;1100;104411;-80
2023/06/12 01:08:29;;;;;;;14.23;5.63;;;;;;;15.88;73.30;100167.12;123793;1102;104252;-78
2023/06/12 01:11:05;;;;;;;10.83;5.87;;;;;;;15.86;73.12;100168.88;123851;1100;104303;-78
2023/06/12 01:13:37;;;;;;;11.27;5.80;;;;;;;15.86;72.41;100179.45;123845;1102;104341;-80
2023/06/12 01:16:09;;;;;;;11.70;5.90;;;;;;;15.86;73.01;100175.04;123738;1102;104278;-79
2023/06/12 01:18:41;;;;;;;12.57;6.20;;;;;;;15.87;72.44;100175.95;123752;1102;104280;-79
2023/06/12 01:21:21;;;;;;;14.95;6.10;;;;;;;15.88;73.41;100177.70;123789;1102;104226;-79
2023/06/12 01:24:12;;;;;;;12.63;6.53;;;;;;;15.87;72.45;100173.30;123726;1102;104280;-81
2023/06/12 01:27:07;;;;;;;15.00;6.70;;;;;;;15.87;72.82;100173.30;123655;1102;104415;-79
2023/06/12 01:30:05;;;;;;;12.97;6.33;;;;;;;15.86;72.46;100169.75;123791;1102;104249;-78
2023/06/12 01:32:39;;;;;;;15.20;7.40;;;;;;;15.85;73.34;100172.37;123770;1100;104245;-79
2023/06/12 01:35:11;;;;;;;;;;;;;;;15.81;73.51;100176.77;123801;1102;104303;-80
2023/06/12 01:37:49;;;;;;;17.17;7.73;;;;;;;15.80;72.63;100172.37;123761;1102;104679;-80
2023/06/12 01:40:30;;;;;;;16.73;7.40;;;;;;;15.77;72.39;100170.58;123612;1102;104290;-78
2023/06/12 01:43:01;;;;;;;16.60;7.70;;;;;;;15.78;72.56;100176.74;123841;1102;104259;-79
2023/06/12 01:45:34;;;;;;;13.83;7.40;;;;;;;15.79;72.42;100163.53;123688;1102;104335;-80
2023/06/12 01:48:06;;;;;;;15.78;7.87;;;;;;;15.80;72.61;100159.14;123818;1102;104226;-79
2023/06/12 01:50:38;;;;;;;15.03;7.47;;;;;;;15.81;73.41;100174.12;123687;1102;111768;-80
2023/06/12 01:53:10;;;;;;;13.80;7.30;;;;;;;15.79;73.04;100165.30;123831;1102;104287;-80
2023/06/12 01:55:42;;;;;;;19.40;7.93;;;;;;;15.77;72.51;100161.77;123945;1102;104383;-82
2023/06/12 01:58:14;;;;;;;19.90;7.70;;;;;;;15.78;73.08;100168.80;123681;1102;104376;-80
2023/06/12 02:01:06;;;;;;;20.03;7.87;;;;;;;15.80;72.47;100173.25;123713;1102;104229;-80
2023/06/12 02:03:39;;;;;;;16.30;8.27;;;;;;;15.80;72.29;100185.60;123814;1102;104252;-80
2023/06/12 02:06:10;;;;;;;19.45;9.25;;;;;;;15.76;73.15;100187.27;123773;1102;104386;-81
2023/06/12 02:08:42;;;;;;;16.30;8.83;;;;;;;15.73;72.47;100189.89;123856;1102;104324;-79
2023/06/12 02:11:17;;;;;;;17.73;9.17;;;;;;;15.73;73.20;100189.89;123904;1102;104514;-79
2023/06/12 02:13:48;;;;;;;23.07;9.87;;;;;;;15.73;72.77;100189.02;123753;1102;104361;-80
2023/06/12 02:16:21;;;;;;;15.70;9.03;;;;;;;15.71;72.74;100191.64;123776;1100;104438;-79
2023/06/12 02:18:53;;;;;;;21.90;9.20;;;;;;;15.71;72.29;100196.06;123687;1102;104294;-79
2023/06/12 02:21:24;;;;;;;17.60;9.45;;;;;;;15.72;72.51;100189.87;123677;1102;104772;-80
2023/06/12 02:23:56;;;;;;;17.37;9.10;;;;;;;15.71;72.64;100199.58;123681;1102;104399;-78
2023/06/12 02:26:28;;;;;;;18.37;9.40;;;;;;;15.71;72.70;100202.22;123695;1102;104284;-79
2023/06/12 02:29:13;;;;;;;17.00;8.83;;;;;;;15.70;73.05;100210.14;123751;1102;104708;-79
2023/06/12 02:31:47;;;;;;;20.90;9.70;;;;;;;15.66;72.64;100206.59;123641;1102;104392;-79
2023/06/12 02:34:18;;;;;;;20.07;9.40;;;;;;;15.63;73.05;100209.20;123707;1102;104360;-79
2023/06/12 02:36:50;;;;;;;21.90;9.90;;;;;;;15.60;72.45;100210.05;123756;1102;104351;-80
2023/06/12 02:39:27;;;;;;;20.15;10.35;;;;;;;15.59;73.48;100216.20;123728;1102;104294;-80
2023/06/12 02:41:58;;;;;;;20.40;10.90;;;;;;;15.59;73.32;100205.62;123792;1102;104348;-80
2023/06/12 02:44:31;;;;;;;25.93;12.30;;;;;;;15.58;73.44;100205.60;123797;1102;104322;-79
2023/06/12 02:47:03;;;;;;;22.60;11.75;;;;;;;15.55;73.46;100210.86;123687;1102;104169;-80
2023/06/12 02:49:44;;;;;;;24.40;11.67;;;;;;;15.51;73.19;100209.07;123771;1102;104383;-79
2023/06/12 02:52:18;;;;;;;20.73;10.83;;;;;;;15.50;73.44;100208.16;123705;1101;104294;-79
2023/06/12 02:54:49;;;;;;;23.17;11.70;;;;;;;15.51;72.83;100207.30;123905;1102;104345;-80
2023/06/12 02:57:21;;;;;;;20.97;10.60;;;;;;;15.53;72.81;100207.31;123976;1100;104318;-81
2023/06/12 02:59:52;;;;;;;20.97;9.57;;;;;;;15.52;72.84;100201.16;123960;1102;104307;-79
2023/06/12 03:02:30;;;;;;;18.03;9.30;;;;;;;15.51;73.10;100211.72;124043;1102;105668;-80
2023/06/12 03:05:01;;;;;;;19.27;8.53;;;;;;;15.50;72.47;100202.87;123876;1102;104338;-81
2023/06/12 03:07:36;;;;;;;15.90;8.63;;;;;;;15.51;73.49;100199.37;123916;1102;104354;-78
2023/06/12 03:10:10;;;;;;;16.37;8.10;;;;;;;15.53;73.50;100207.31;123885;1102;104700;-79
2023/06/12 03:12:41;;;;;;;16.47;8.17;;;;;;;15.52;73.42;100200.25;124296;1102;104238;-80
2023/06/12 03:15:14;;;;;;;16.70;8.60;;;;;;;15.54;73.24;100204.69;123928;1102;104421;-81
2023/06/12 03:17:46;;;;;;;17.65;8.50;;;;;;;15.56;72.44;100204.71;124002;1102;104721;-80
2023/06/12 03:20:18;;;;;;;18.07;9.63;;;;;;;15.57;73.10;100204.73;123913;1102;104255;-80
2023/06/12 03:22:49;;;;;;;23.77;9.43;;;;;;;15.61;72.54;100201.25;123942;1102;104310;-80
2023/06/12 03:25:20;;;;;;;19.93;9.87;;;;;;;15.62;72.45;100199.48;124070;1102;104169;-80
2023/06/12 03:27:51;;;;;;;22.03;10.30;;;;;;;15.60;73.45;100195.95;123818;1102;104242;-79
2023/06/12 03:30:23;;;;;;;18.77;9.97;;;;;;;15.60;73.54;100210.05;123860;1102;104325;-80
2023/06/12 03:32:56;;;;;;;19.75;9.90;;;;;;;15.62;73.07;100203.00;123781;1102;104325;-81
2023/06/12 03:35:29;;;;;;;19.60;9.63;;;;;;;15.61;72.67;100205.63;123769;1102;104245;-80
2023/06/12 03:38:01;;;;;;;18.20;9.93;;;;;;;15.61;72.69;100216.21;123743;1102;104271;-80
2023/06/12 03:40:32;;;;;;;17.30;9.15;;;;;;;15.60;73.63;100210.05;123798;1103;104654;-79
2023/06/12 03:43:04;;;;;;;19.57;9.43;;;;;;;15.57;72.84;100207.38;123780;1102;104176;-79
2023/06/12 03:45:35;;;;;;;24.40;10.30;;;;;;;15.56;73.39;100218.81;123762;1102;104303;-80
2023/06/12 03:48:07;;;;;;;18.43;10.53;;;;;;;15.54;72.70;100212.63;123797;1102;104332;-79
2023/06/12 03:50:39;;;;;;;22.70;10.37;;;;;;;15.52;73.11;100219.66;123799;1101;104271;-78
2023/06/12 03:53:11;;;;;;;20.03;9.87;;;;;;;15.53;72.99;100220.54;123864;1102;104370;-80
2023/06/12 03:55:43;;;;;;;22.80;10.20;;;;;;;15.52;72.93;100229.33;123697;1102;104717;-77
2023/06/12 03:58:16;;;;;;;19.10;10.50;;;;;;;15.50;73.12;100224.02;123616;1102;104271;-80
2023/06/12 04:00:47;;;;;;;20.23;10.03;;;;;;;15.51;73.78;100228.45;123904;1102;104309;-79
2023/06/12 04:03:21;;;;;;;21.03;10.50;;;;;;;15.56;73.36;100223.22;123663;1102;104296;-78
2023/06/12 04:05:53;;;;;;;21.17;10.98;;;;;;;15.58;72.67;100224.11;123523;1102;104371;-79
2023/06/12 04:08:24;;;;;;;20.03;10.40;;;;;;;15.59;72.67;100224.13;123718;1101;104239;-79
2023/06/12 04:10:56;;;;;;;18.00;9.70;;;;;;;15.68;73.39;100222.48;123787;1102;104319;-78
2023/06/12 04:13:27;;;;;;;21.27;10.20;;;;;;;15.73;73.02;100221.62;123599;1102;104249;-78
2023/06/12 04:15:58;;;;;;;20.45;10.00;;;;;;;15.76;72.75;100220.78;123902;1102;104232;-78
2023/06/12 04:18:30;;;;;;;17.67;10.20;;;;;;;15.81;73.30;100224.39;123777;1102;104434;-78
2023/06/12 04:21:03;;;;;;;18.97;10.47;;;;;;;15.86;72.54;100227.95;123797;1102;104248;-81
2023/06/12 04:23:37;;;;;;;18.70;10.90;;;;;;;15.89;73.37;100227.98;123919;1101;104628;-79
2023/06/12 04:26:10;;;;;;;22.40;10.30;;;;;;;15.93;73.16;100227.16;123791;1102;104348;-78
2023/06/12 04:28:42;;;;;;;17.60;10.00;;;;;;;15.99;73.01;100232.51;123723;1102;104288;-78
2023/06/12 04:31:15;;;;;;;21.53;10.20;;;;;;;16.08;72.67;100229.06;123869;1100;104363;-79
2023/06/12 04:33:48;;;;;;;18.05;10.13;;;;;;;16.16;72.96;100231.78;123727;1102;104329;-78
2023/06/12 04:36:21;;;;;;;21.12;10.32;;;;;;;16.18;73.07;100233.55;123981;1102;104252;-76
2023/06/12 04:38:52;;;;;;;18.17;10.30;;;;;;;16.22;72.88;100241.52;123950;1102;104280;-74
2023/06/12 04:41:24;;;;;;;19.45;10.40;;;;;;;16.20;71.98;100237.98;123776;1102;104348;-75
2023/06/12 04:43:58;;;;;;;18.97;9.90;;;;;;;16.18;72.31;100243.27;125317;1102;104325;-75
2023/06/12 04:46:32;;;;;;;20.40;10.23;;;;;;;16.20;72.33;100248.56;126203;1101;101822;-76
2023/06/12 04:49:03;;;;;;;17.17;9.87;;;;;;;16.24;72.44;100253.03;126274;1102;101330;-76
2023/06/12 04:51:35;;;;;;;20.33;10.40;;;;;;;16.20;71.78;100246.80;125477;1101;104229;-76
2023/06/12 04:54:09;;;;;;;22.83;10.80;;;;;;;16.18;72.12;100238.84;124004;1102;104169;-77
2023/06/12 04:56:44;;;;;;;18.32;10.25;;;;;;;16.19;71.91;100231.81;126261;1101;101910;-76
2023/06/12 04:59:17;;;;;;;22.17;10.57;;;;;;;16.22;71.61;100238.87;124285;1102;104261;-79
2023/06/12 05:01:48;;;;;;;16.80;10.30;;;;;;;16.24;72.21;100247.73;123998;1102;104541;-78
2023/06/12 05:04:20;;;;;;;23.83;11.07;;;;;;;16.23;72.15;100243.30;124027;1102;104360;-79
2023/06/12 05:06:54;;;;;;;21.43;9.90;;;;;;;16.18;71.49;100244.14;124099;1102;104274;-80
2023/06/12 05:09:26;;;;;;;18.17;10.00;;;;;;;16.16;71.73;100247.66;124222;1102;104192;-80
2023/06/12 05:11:59;;;;;;;17.50;10.10;;;;;;;16.18;71.95;100246.78;124046;1102;104223;-74
2023/06/12 05:14:32;;;;;;;20.00;9.77;;;;;;;16.22;72.12;100247.72;124094;1102;104274;-78
2023/06/12 05:17:05;;;;;;;21.33;10.45;;;;;;;16.24;71.85;100245.97;124083;1100;103505;-76
2023/06/12 05:19:38;;;;;;;20.05;10.50;;;;;;;16.26;71.68;100249.50;124230;1102;104245;-76
2023/06/12 05:22:09;;;;;;;16.97;9.60;;;;;;;16.27;71.17;100253.93;124100;1102;104337;-81
2023/06/12 05:24:41;;;;;;;17.30;9.53;;;;;;;16.28;70.97;100252.16;124288;1102;102044;-78
2023/06/12 05:27:16;;;;;;;16.67;9.37;;;;;;;16.30;71.58;100250.44;124181;1101;104226;-78
2023/06/12 05:29:48;;;;;;;16.70;9.47;;;;;;;16.28;71.65;100252.16;124563;1102;103912;-78
2023/06/12 05:32:19;;;;;;;18.67;9.83;;;;;;;16.29;70.80;100254.82;124548;1102;104362;-76
2023/06/12 05:34:51;;;;;;;19.17;10.13;;;;;;;16.36;71.78;100263.69;124420;1102;104329;-77
2023/06/12 05:37:22;;;;;;;19.57;9.77;;;;;;;16.37;71.44;100254.02;124658;1102;104252;-77
2023/06/12 05:39:55;;;;;;;17.63;10.47;;;;;;;16.33;71.09;100259.28;124588;1102;104326;-80
2023/06/12 05:42:27;;;;;;;20.17;10.20;;;;;;;16.32;71.51;100264.56;124896;1102;102675;-78
2023/06/12 05:45:01;;;;;;;19.70;10.73;;;;;;;16.33;70.98;100258.37;124562;1102;104162;-76
2023/06/12 05:47:32;;;;;;;;;;;;;;;16.29;71.48;100248.65;124489;1102;104168;-78
2023/06/12 05:50:04;;;;;;;21.80;10.77;;;;;;;16.26;70.74;100243.33;124949;1102;104074;-79
2023/06/12 05:52:36;;;;;;;19.23;11.33;;;;;;;16.24;70.97;100245.09;124995;1102;104306;-81
2023/06/12 05:55:09;;;;;;;20.33;11.03;;;;;;;16.23;71.41;100248.59;124678;1103;104175;-79
2023/06/12 05:57:41;;;;;;;19.82;11.05;;;;;;;16.28;71.23;100244.22;124480;1102;104245;-80
2023/06/12 06:00:14;;;;;;;21.47;10.47;;;;;;;16.29;70.93;100256.59;124781;1102;104335;-78
2023/06/12 06:02:48;;;;;;;18.50;11.43;;;;;;;16.26;70.70;100253.92;124665;1102;104195;-76
2023/06/12 06:05:31;;;;;;;19.70;11.33;;;;;;;16.23;71.54;100257.41;124335;1102;104188;-77
2023/06/12 06:08:12;;;;;;;19.50;10.80;;;;;;;16.24;71.02;100263.62;124488;1102;104248;-78
2023/06/12 06:10:48;;;;;;;20.37;10.97;;;;;;;16.25;70.91;100265.38;126241;1101;102629;-81
2023/06/12 06:13:19;;;;;;;21.53;11.10;;;;;;;16.25;71.25;100270.66;125993;1101;102784;-78
2023/06/12 06:15:51;;;;;;;21.07;11.83;;;;;;;16.26;71.50;100265.38;124949;1102;104341;-74
2023/06/12 06:18:23;;;;;;;19.33;11.57;;;;;;;16.24;71.32;100266.27;124440;1102;104174;-77
2023/06/12 06:20:54;;;;;;;21.45;11.65;;;;;;;16.22;71.49;100273.28;124456;1102;104146;-80
2023/06/12 06:23:27;;;;;;;21.00;11.27;;;;;;;16.23;70.67;100259.19;124545;1102;104245;-80
2023/06/12 06:26:00;;;;;;;20.47;10.70;;;;;;;16.28;70.76;100268.05;124281;1102;104711;-78
2023/06/12 06:28:35;;;;;;;23.07;11.68;;;;;;;16.32;71.59;100267.21;124434;1102;104261;-78
2023/06/12 06:31:08;;;;;;;19.13;11.33;;;;;;;16.32;70.66;100275.16;124159;1102;102157;-77
2023/06/12 06:33:40;;;;;;;17.43;10.70;;;;;;;16.32;71.30;100276.03;124356;1102;104226;-78
2023/06/12 06:36:19;;;;;;;22.20;11.73;;;;;;;16.28;71.07;100271.60;124415;1102;104173;-77
2023/06/12 06:38:51;;;;;;;18.43;10.80;;;;;;;16.28;71.37;100273.34;124233;1102;104062;-78
2023/06/12 06:41:23;;;;;;;18.67;11.13;;;;;;;16.32;71.26;100280.45;124394;1102;104153;-79
2023/06/12 06:43:55;;;;;;;19.77;11.47;;;;;;;16.33;70.94;100276.91;124411;1102;104211;-79
2023/06/12 06:46:29;;;;;;;20.30;11.57;;;;;;;16.32;71.17;100280.45;124331;1102;104281;-78
2023/06/12 06:49:30;;;;;;;21.23;12.27;;;;;;;16.31;70.98;100282.22;124221;1102;104160;-76
2023/06/12 06:52:02;;;;;;;20.17;11.80;;;;;;;16.33;71.13;100283.11;124007;1102;104329;-77
2023/06/12 06:54:35;;;;;;;21.17;11.83;;;;;;;16.40;70.65;100284.04;124182;1102;103147;-72
2023/06/12 06:57:15;;;;;;;19.57;11.13;;;;;;;16.42;70.44;100286.70;124258;1102;110645;-72
2023/06/12 06:59:49;;;;;;;20.30;11.23;;;;;;;16.43;71.01;100284.06;124430;1102;104169;-77
2023/06/12 07:02:24;;;;;;;21.05;12.20;;;;;;;16.43;70.94;100285.84;124201;1102;104172;-75
2023/06/12 07:04:58;;;;;;;23.20;12.63;;;;;;;16.41;70.92;100284.91;124212;1102;104291;-76
2023/06/12 07:07:29;;;;;;;21.50;12.20;;;;;;;16.39;70.82;100292.84;124327;1102;104284;-77
2023/06/12 07:10:14;;;;;;;21.23;11.87;;;;;;;16.38;70.84;100276.95;124165;1102;104367;-75
2023/06/12 07:12:45;;;;;;;20.30;12.17;;;;;;;16.39;70.85;100289.33;124353;1102;104198;-74
2023/06/12 07:15:17;;;;;;;19.73;11.80;;;;;;;16.42;71.02;100282.28;124233;1102;103676;-77
2023/06/12 07:17:54;;;;;;;21.10;13.25;;;;;;;16.44;70.61;100285.85;124280;1100;104242;-80
2023/06/12 07:20:23;;;;;;;;;;;;;;;16.48;70.36;100281.45;124499;1102;104178;-77
2023/06/12 07:22:55;;;;;;;21.33;12.33;;;;;;;16.56;70.11;100284.17;124242;1101;104133;-76
2023/06/12 07:25:35;;;;;;;21.70;12.93;;;;;;;16.60;70.40;100276.26;124464;1101;104172;-77
2023/06/12 07:28:11;;;;;;;20.77;12.03;;;;;;;16.69;70.54;100278.09;124499;1102;118704;-81
2023/06/12 07:30:46;;;;;;;19.93;11.83;;;;;;;16.78;69.98;100286.11;124334;1102;104296;-74
2023/06/12 07:33:25;;;;;;;21.70;12.55;;;;;;;16.87;70.02;100282.66;124226;1102;104173;-76
2023/06/12 07:35:57;;;;;;;20.67;11.73;;;;;;;17.00;70.16;100286.25;124521;1102;102738;-82
2023/06/12 07:38:41;;;;;;;22.27;12.50;;;;;;;17.07;70.06;100282.78;124392;1102;104805;-76
2023/06/12 07:41:19;;;;;;;21.90;12.33;;;;;;;17.15;69.94;100290.77;124443;1102;104229;-77
2023/06/12 07:44:02;;;;;;;20.97;11.60;;;;;;;17.20;69.69;100287.28;124430;1102;104377;-78
2023/06/12 07:46:37;;;;;;;22.40;12.63;;;;;;;17.25;69.50;100280.22;124242;1102;102442;-78
2023/06/12 07:49:12;;;;;;;19.87;11.40;;;;;;;17.36;69.13;100279.41;124191;1102;104262;-79
2023/06/12 07:51:44;;;;;;;20.43;11.83;;;;;;;17.41;69.00;100283.83;124408;1102;104168;-77
2023/06/12 07:54:15;;;;;;;22.80;12.37;;;;;;;17.34;68.43;100278.48;124259;1102;104265;-77
2023/06/12 07:56:50;;;;;;;22.83;12.60;;;;;;;17.34;68.79;100275.83;124254;1102;104402;-77
2023/06/12 07:59:23;;;;;;;21.55;11.70;;;;;;;17.40;68.20;100271.43;124418;1102;104322;-74
2023/06/12 08:01:59;;;;;;;24.87;13.50;;;;;;;17.38;68.30;100288.23;124490;1102;104255;-73
2023/06/12 08:04:31;;;;;;;21.33;12.70;;;;;;;17.36;68.34;100282.05;124392;1102;104252;-77
2023/06/12 08:07:04;;;;;;;22.47;12.47;;;;;;;17.47;68.31;100280.33;124429;1101;104229;-79
2023/06/12 08:09:36;;;;;;;22.90;11.80;;;;;;;17.63;68.14;100277.73;124412;1101;104335;-80
2023/06/12 08:12:16;;;;;;;20.33;11.20;;;;;;;17.80;67.96;100270.70;124370;1102;103159;-77
2023/06/12 08:14:54;;;;;;;22.40;12.10;;;;;;;17.89;67.59;100277.84;124419;1102;104258;-77
2023/06/12 08:17:29;;;;;;;21.87;11.43;;;;;;;18.00;67.43;100270.77;124736;1102;104191;-77
2023/06/12 08:20:06;;;;;;;23.57;11.13;;;;;;;18.10;67.35;100269.01;124473;1102;102756;-76
2023/06/12 08:22:39;;;;;;;19.90;11.20;;;;;;;18.17;67.25;100268.14;124253;1102;104223;-80
2023/06/12 08:25:09;;;;;;;;;;;;;;;18.21;66.57;100267.23;124519;1102;103495;-76
2023/06/12 08:27:45;;;;;;;20.27;10.63;;;;;;;18.24;66.51;100269.02;124358;1102;104188;-77
2023/06/12 08:30:21;;;;;;;21.83;10.60;;;;;;;18.37;66.55;100264.59;124389;1100;104166;-76
2023/06/12 08:32:55;;;;;;;20.67;9.90;;;;;;;18.46;66.60;100268.13;124376;1102;101981;-77
2023/06/12 08:35:28;;;;;;;21.75;10.10;;;;;;;18.56;66.46;100266.37;124232;1102;104245;-77
2023/06/12 08:38:01;;;;;;;16.23;9.35;;;;;;;18.52;65.80;100261.94;124604;1102;104185;-81
2023/06/12 08:40:36;;;;;;;19.03;9.57;;;;;;;18.43;66.05;100264.59;124403;1102;104316;-79
2023/06/12 08:43:08;;;;;;;20.33;9.40;;;;;;;18.38;65.71;100269.03;124697;1102;104255;-77
2023/06/12 08:45:46;;;;;;;17.90;9.60;;;;;;;18.30;66.07;100256.63;124189;1102;104435;-75
2023/06/12 08:48:19;;;;;;;18.10;9.80;;;;;;;18.30;65.77;100261.06;124193;1102;104389;-79
2023/06/12 08:50:54;;;;;;;19.53;9.40;;;;;;;18.30;66.03;100263.72;124231;1102;104319;-78
2023/06/12 08:53:25;;;;;;;23.17;9.80;;;;;;;18.29;66.15;100261.94;124332;1101;104251;-78
2023/06/12 08:55:58;;;;;;;17.57;9.60;;;;;;;18.23;65.96;100253.96;124290;1102;104252;-77
2023/06/12 08:58:29;;;;;;;18.37;8.90;;;;;;;18.19;65.53;100253.08;124218;1102;103840;-75
2023/06/12 09:01:01;;;;;;;18.80;10.30;;;;;;;18.03;66.06;100245.98;124161;1102;104445;-74
2023/06/12 09:03:36;;;;;;;19.75;10.05;;;;;;;17.94;66.20;100244.22;124201;1102;104232;-77
2023/06/12 09:06:11;;;;;;;18.63;9.60;;;;;;;17.85;66.28;100257.44;124351;1101;104245;-74
2023/06/12 09:08:43;;;;;;;19.33;9.93;;;;;;;17.81;66.37;100259.20;124240;1102;104175;-78
2023/06/12 09:11:16;;;;;;;18.57;9.83;;;;;;;17.75;66.87;100262.72;124342;1102;104368;-79
2023/06/12 09:13:51;;;;;;;21.37;10.00;;;;;;;17.79;66.43;100252.98;124267;1102;104284;-75
2023/06/12 09:16:22;;;;;;;20.07;10.57;;;;;;;17.93;66.75;100251.27;124196;1102;104283;-76
2023/06/12 09:18:57;;;;;;;20.23;9.30;;;;;;;18.14;66.63;100254.86;124310;1102;104245;-77
2023/06/12 09:21:32;;;;;;;18.53;9.23;;;;;;;18.31;66.70;100244.25;124371;1102;104248;-78
2023/06/12 09:24:05;;;;;;;17.27;8.70;;;;;;;18.49;66.30;100244.21;124379;1102;104358;-76
2023/06/12 09:26:39;;;;;;;15.10;8.23;;;;;;;18.55;65.79;100259.27;124304;1102;104162;-79
2023/06/12 09:29:17;;;;;;;18.93;8.17;;;;;;;18.66;65.54;100249.51;124213;1101;104278;-78
2023/06/12 09:31:54;;;;;;;18.82;8.48;;;;;;;18.73;65.36;100252.16;124227;1102;104374;-79
2023/06/12 09:34:27;;;;;;;17.90;8.93;;;;;;;18.68;65.37;100252.16;124469;1100;104281;-78
2023/06/12 09:36:59;;;;;;;15.20;8.17;;;;;;;18.80;65.39;100256.59;124478;1102;103479;-77
2023/06/12 09:39:33;;;;;;;15.43;8.10;;;;;;;18.83;64.84;100251.27;124603;1102;104169;-79
2023/06/12 09:42:16;;;;;;;16.60;8.53;;;;;;;18.79;65.15;100265.44;124550;1102;104398;-76
2023/06/12 09:44:47;;;;;;;16.00;8.80;;;;;;;18.78;65.03;100264.56;126063;1101;102253;-79
2023/06/12 09:47:20;;;;;;;16.73;8.67;;;;;;;18.77;65.11;100261.91;126141;1101;103075;-80
2023/06/12 09:49:58;;;;;;;15.73;8.63;;;;;;;18.65;64.56;100268.11;125797;1102;102397;-78
2023/06/12 09:52:30;;;;;;;20.33;9.70;;;;;;;18.46;64.99;100267.25;124592;1103;102605;-76
2023/06/12 09:55:08;;;;;;;19.43;9.17;;;;;;;18.29;65.03;100264.59;124453;1102;104405;-80
2023/06/12 09:57:47;;;;;;;18.13;9.23;;;;;;;18.25;65.22;100253.09;124465;1102;104175;-78
2023/06/12 10:00:25;;;;;;;19.53;9.63;;;;;;;18.32;65.20;100260.19;124610;1101;104268;-79
2023/06/12 10:03:26;;;;;;;20.80;9.93;;;;;;;18.30;65.17;100256.63;124806;1102;104165;-73
2023/06/12 10:05:59;;;;;;;18.13;9.90;;;;;;;18.41;64.95;100266.38;124547;1101;104297;-76
2023/06/12 10:08:33;;;;;;;18.05;9.45;;;;;;;18.48;65.08;100254.84;124585;1102;102738;-74
2023/06/12 10:11:07;;;;;;;19.23;9.30;;;;;;;18.62;65.47;100258.39;124524;1102;102690;-73
2023/06/12 10:13:41;;;;;;;15.17;8.37;;;;;;;18.65;64.48;100263.70;124492;1102;104180;-75
2023/06/12 10:16:14;;;;;;;19.40;9.07;;;;;;;18.72;65.25;100259.26;124489;1102;104351;-74
2023/06/12 10:18:48;;;;;;;20.73;9.83;;;;;;;18.91;64.76;100252.16;124377;1102;104245;-78
2023/06/12 10:21:21;;;;;;;20.67;10.10;;;;;;;19.14;64.31;100261.86;124453;1102;104667;-74
2023/06/12 10:23:53;;;;;;;19.23;9.70;;;;;;;19.09;64.58;100247.67;124449;1102;104179;-74
2023/06/12 10:26:26;;;;;;;20.07;10.03;;;;;;;19.22;64.56;100249.41;124647;1102;102559;-79
2023/06/12 10:29:02;;;;;;;20.67;9.80;;;;;;;19.32;63.77;100248.49;124764;1100;104239;-76
2023/06/12 10:31:38;;;;;;;18.50;9.20;;;;;;;19.44;63.41;100242.22;125036;1102;104213;-77
2023/06/12 10:34:17;;;;;;;18.00;8.80;;;;;;;19.50;62.81;100260.81;124842;1102;102965;-75
2023/06/12 10:36:49;;;;;;;17.30;9.43;;;;;;;19.50;62.15;100259.94;124732;1100;104274;-79
2023/06/12 10:39:25;;;;;;;23.00;10.75;;;;;;;19.53;62.04;100262.59;124572;1102;104175;-78
2023/06/12 10:41:59;;;;;;;20.57;10.03;;;;;;;19.60;61.90;100253.66;124774;1102;103469;-75
2023/06/12 10:44:49;;;;;;;17.70;8.93;;;;;;;19.69;62.05;100258.93;124547;1102;104181;-78
2023/06/12 10:47:30;;;;;;;18.20;9.33;;;;;;;19.73;61.95;100257.16;124689;1102;104229;-75
2023/06/12 10:50:08;;;;;;;17.87;10.00;;;;;;;19.62;61.65;100251.89;124570;1101;103590;-76
2023/06/12 10:53:04;;;;;;;22.07;10.53;;;;;;;19.63;61.64;100253.64;124579;1102;103798;-77
2023/06/12 10:55:39;;;;;;;19.20;9.77;;;;;;;19.62;61.85;100254.55;124502;1102;104284;-75
2023/06/12 10:58:16;;;;;;;19.73;10.27;;;;;;;19.69;61.32;100256.27;124721;1102;104219;-76
2023/06/12 11:00:56;;;;;;;18.30;10.20;;;;;;;19.67;60.98;100251.88;124867;1102;104207;-74
2023/06/12 11:03:29;;;;;;;21.33;9.93;;;;;;;19.61;61.94;100257.22;124528;1102;104211;-78
2023/06/12 11:06:13;;;;;;;19.57;9.87;;;;;;;19.54;60.66;100243.95;124745;1102;104281;-77
2023/06/12 11:08:47;;;;;;;19.53;10.27;;;;;;;19.42;61.17;100240.47;124755;1101;104310;-73
2023/06/12 11:11:19;;;;;;;21.03;10.00;;;;;;;19.38;61.49;100235.17;125875;1101;102632;-77
2023/06/12 11:14:01;;;;;;;20.83;9.23;;;;;;;19.26;61.30;100235.22;125987;1101;102651;-77
2023/06/12 11:16:41;;;;;;;19.90;10.17;;;;;;;19.13;61.72;100230.82;125989;1102;102648;-78
2023/06/12 11:19:12;;;;;;;18.73;10.30;;;;;;;19.11;61.77;100224.64;126146;1099;102695;-77
2023/06/12 11:21:45;;;;;;;19.20;9.57;;;;;;;19.12;61.14;100218.41;126142;1100;102812;-77
2023/06/12 11:24:17;;;;;;;19.47;10.03;;;;;;;19.18;61.45;100221.04;126450;1100;102063;-78
2023/06/12 11:26:51;;;;;;;20.00;9.40;;;;;;;19.18;61.83;100205.09;125033;1102;102531;-77
2023/06/12 11:29:25;;;;;;;17.97;9.07;;;;;;;19.23;61.88;100208.63;124326;1102;104271;-78
2023/06/12 11:32:04;;;;;;;;;;;;;;;19.20;61.41;100208.64;124419;1102;104300;-77